Terminal Aerodrome Forecast
Issued by NWS

Home | Current Version | Previous Version | Text Only | Print | Product List | Glossary On
Versions: 1 2 3 4 5 6 7 8 9 10 11 12 13 14 15 16 17 18 19 20 21 22 23 24 25 26 27 28
000
FTUS41 KCTP 260310 AAA
TAFAOO
TAF AMD
KAOO 260310Z 2603/2624 27015G25KT P6SM BKN035
     FM260500 30014G24KT P6SM SCT035
     FM261200 31018G32KT P6SM BKN030
     FM261400 32018G32KT P6SM BKN035=

USA.gov is the U.S. government's official web portal to all federal, state and local government web resources and services.